createdAt,value
2023-01-20T00:01:44.227Z,100794.03
2023-01-20T00:04:12.452Z,100793.64
2023-01-20T00:06:40.124Z,100797.23
2023-01-20T00:09:08.093Z,100801.65
2023-01-20T00:11:35.685Z,100799.69
2023-01-20T00:14:03.965Z,100804.10
2023-01-20T00:16:33.293Z,100801.32
2023-01-20T00:19:01.059Z,100802.96
2023-01-20T00:21:28.933Z,100817.77
2023-01-20T00:23:56.959Z,100814.14
2023-01-20T00:26:25.700Z,100819.34
2023-01-20T00:28:57.247Z,100818.52
2023-01-20T00:31:29.997Z,100820.95
2023-01-20T00:34:02.433Z,100823.76
2023-01-20T00:36:35.053Z,100828.20
2023-01-20T00:39:04.082Z,100831.44
2023-01-20T00:41:31.971Z,100828.27
2023-01-20T00:43:59.734Z,100836.70
2023-01-20T00:46:28.084Z,100833.50
2023-01-20T00:48:55.844Z,100832.29
2023-01-20T00:51:23.701Z,100846.77
2023-01-20T00:53:51.396Z,100842.30
2023-01-20T00:56:19.104Z,100851.91
2023-01-20T00:58:46.842Z,100852.30
2023-01-20T01:01:14.793Z,100856.69
2023-01-20T01:03:42.788Z,100864.30
2023-01-20T01:06:16.309Z,100857.53
2023-01-20T01:08:45.506Z,100862.34
2023-01-20T01:11:14.091Z,100863.95
2023-01-20T01:13:42.595Z,100865.97
2023-01-20T01:16:15.123Z,100878.37
2023-01-20T01:18:43.424Z,100866.33
2023-01-20T01:21:14.708Z,100864.30
2023-01-20T01:23:42.476Z,100869.08
2023-01-20T01:26:11.561Z,100871.01
2023-01-20T01:28:39.719Z,100875.03
2023-01-20T01:31:09.049Z,100871.37
2023-01-20T01:33:37.160Z,100880.55
2023-01-20T01:36:06.489Z,100882.62
2023-01-20T01:38:34.182Z,100890.59
2023-01-20T01:41:02.231Z,100889.77
2023-01-20T01:43:35.685Z,100891.37
2023-01-20T01:46:04.013Z,100898.57
2023-01-20T01:48:44.766Z,100902.56
2023-01-20T01:51:21.920Z,100896.52
2023-01-20T01:54:03.854Z,100904.16
2023-01-20T01:56:33.003Z,100907.40
2023-01-20T01:59:04.367Z,100900.53
2023-01-20T02:01:34.078Z,100906.95
2023-01-20T02:04:08.432Z,100901.77
2023-01-20T02:06:40.926Z,100899.85
2023-01-20T02:09:08.711Z,100903.48
2023-01-20T02:11:44.927Z,100906.32
2023-01-20T02:14:13.024Z,100908.38
2023-01-20T02:16:56.014Z,100912.34
2023-01-20T02:19:42.428Z,100915.58
2023-01-20T02:22:23.672Z,100912.34
2023-01-20T02:25:09.946Z,100916.33
2023-01-20T02:28:09.661Z,100920.74
2023-01-20T02:30:40.399Z,100924.30
2023-01-20T02:33:20.889Z,100929.93
2023-01-20T02:35:56.313Z,100922.70
2023-01-20T02:38:39.137Z,100925.13
2023-01-20T02:41:24.797Z,100929.08
2023-01-20T02:44:01.210Z,100934.70
2023-01-20T02:46:37.921Z,100933.10
2023-01-20T02:49:26.193Z,100938.34
2023-01-20T02:52:03.815Z,100937.12
2023-01-20T02:54:35.700Z,100939.97
2023-01-20T02:57:07.302Z,100945.59
2023-01-20T02:59:40.946Z,100942.75
2023-01-20T03:02:14.976Z,100937.95
2023-01-20T03:04:53.905Z,100945.59
2023-01-20T03:07:25.009Z,100944.42
2023-01-20T03:09:56.868Z,100955.24
2023-01-20T03:12:47.342Z,100949.26
2023-01-20T03:15:16.860Z,100953.28
2023-01-20T03:17:44.734Z,100964.53
2023-01-20T03:20:12.984Z,100954.09
2023-01-20T03:22:40.892Z,100954.46
2023-01-20T03:25:11.763Z,100965.31
2023-01-20T03:27:39.570Z,100963.29
2023-01-20T03:30:14.216Z,100966.91
2023-01-20T03:32:47.067Z,100963.68
2023-01-20T03:35:17.425Z,100973.33
2023-01-20T03:37:46.322Z,100968.52
2023-01-20T03:40:16.019Z,100970.12
2023-01-20T03:43:06.211Z,100973.33
2023-01-20T03:45:40.704Z,100973.69
2023-01-20T03:48:12.114Z,100983.33
2023-01-20T03:50:57.955Z,100986.54
2023-01-20T03:53:35.160Z,100988.14
2023-01-20T03:56:02.785Z,100983.37
2023-01-20T03:58:34.997Z,100989.80
2023-01-20T04:01:17.677Z,100989.74
2023-01-20T04:03:50.042Z,101003.73
2023-01-20T04:06:20.426Z,100997.69
2023-01-20T04:08:57.566Z,101005.27
2023-01-20T04:11:25.584Z,101009.27
2023-01-20T04:13:53.308Z,101009.30
2023-01-20T04:16:21.678Z,101023.78
2023-01-20T04:18:51.753Z,101013.32
2023-01-20T04:21:36.783Z,101022.21
2023-01-20T04:24:28.810Z,101019.79
2023-01-20T04:26:56.488Z,101027.02
2023-01-20T04:29:24.297Z,101023.00
2023-01-20T04:31:52.042Z,101019.79
2023-01-20T04:34:19.694Z,101027.41
2023-01-20T04:36:47.428Z,101031.04
2023-01-20T04:39:15.167Z,101035.85
2023-01-20T04:41:42.827Z,101033.85
2023-01-20T04:44:10.570Z,101035.85
2023-01-20T04:46:38.298Z,101041.47
2023-01-20T04:49:06.185Z,101045.52
2023-01-20T04:51:34.667Z,101043.96
2023-01-20T04:54:02.415Z,101041.18
2023-01-20T04:56:30.128Z,101050.43
2023-01-20T04:58:57.963Z,101055.24
2023-01-20T05:01:25.858Z,101052.88
2023-01-20T05:03:53.509Z,101056.09
2023-01-20T05:06:21.193Z,101063.35
2023-01-20T05:08:49.004Z,101060.93
2023-01-20T05:11:16.823Z,101078.20
2023-01-20T05:13:44.466Z,101074.17
2023-01-20T05:16:12.401Z,101081.76
2023-01-20T05:18:40.255Z,101086.56
2023-01-20T05:21:09.854Z,101089.80
2023-01-20T05:23:37.584Z,101084.18
2023-01-20T05:26:05.364Z,101098.63
2023-01-20T05:28:33.352Z,101092.23
2023-01-20T05:31:01.347Z,101098.66
2023-01-20T05:33:29.183Z,101099.84
2023-01-20T05:35:56.876Z,101101.48
2023-01-20T05:38:24.549Z,101104.26
2023-01-20T05:40:52.297Z,101112.30
2023-01-20T05:43:20.129Z,101115.11
2023-01-20T05:45:47.957Z,101112.30
2023-01-20T05:48:15.746Z,101120.34
2023-01-20T05:50:44.274Z,101132.37
2023-01-20T05:53:11.989Z,101135.59
2023-01-20T05:55:39.646Z,101135.55
2023-01-20T05:58:08.406Z,101137.94
2023-01-20T06:00:36.278Z,101145.59
2023-01-20T06:03:04.173Z,101139.54
2023-01-20T06:05:31.958Z,101147.59
2023-01-20T06:07:59.753Z,101147.98
2023-01-20T06:10:29.204Z,101155.59
2023-01-20T06:12:57.605Z,101149.19
2023-01-20T06:15:26.464Z,101141.96
2023-01-20T06:17:56.364Z,101153.99
2023-01-20T06:20:24.096Z,101156.41
2023-01-20T06:22:56.937Z,101168.05
2023-01-20T06:25:24.671Z,101177.30
2023-01-20T06:27:52.335Z,101167.27
2023-01-20T06:30:20.239Z,101169.27
2023-01-20T06:32:49.428Z,101174.89
2023-01-20T06:35:17.333Z,101176.91
2023-01-20T06:37:45.357Z,101175.70
2023-01-20T06:40:13.504Z,101166.48
2023-01-20T06:42:41.477Z,101175.74
2023-01-20T06:45:10.382Z,101185.38
2023-01-20T06:47:38.089Z,101202.29
2023-01-20T06:50:06.248Z,101227.60
2023-01-20T06:52:33.881Z,101233.20
2023-01-20T06:55:08.670Z,101218.34
2023-01-20T06:57:36.480Z,101240.84
2023-01-20T07:00:05.530Z,101235.22
2023-01-20T07:02:33.360Z,101239.21
2023-01-20T07:05:01.551Z,101247.29
2023-01-20T07:07:29.197Z,101245.23
2023-01-20T07:09:56.884Z,101257.72
2023-01-20T07:12:24.578Z,101262.52
2023-01-20T07:14:52.293Z,101257.30
2023-01-20T07:17:20.026Z,101258.08
2023-01-20T07:19:47.848Z,101258.90
2023-01-20T07:22:15.738Z,101256.09
2023-01-20T07:24:43.453Z,101267.34
2023-01-20T07:27:11.147Z,101271.35
2023-01-20T07:29:39.306Z,101285.80
2023-01-20T07:32:07.080Z,101284.99
2023-01-20T07:34:34.859Z,101288.62
2023-01-20T07:37:03.536Z,101295.84
2023-01-20T07:39:31.381Z,101295.06
2023-01-20T07:41:59.007Z,101306.31
2023-01-20T07:44:26.691Z,101302.29
2023-01-20T07:46:55.516Z,101313.15
2023-01-20T07:49:23.205Z,101313.11
2023-01-20T07:51:50.918Z,101318.73
2023-01-20T07:54:18.692Z,101321.94
2023-01-20T07:56:46.466Z,101327.56
2023-01-20T07:59:14.254Z,101327.96
2023-01-20T08:01:44.330Z,101335.97
2023-01-20T08:04:14.182Z,101333.98
2023-01-20T08:06:42.081Z,101338.78
2023-01-20T08:09:13.218Z,101349.24
2023-01-20T08:11:40.854Z,101346.04
2023-01-20T08:14:08.642Z,101344.87
2023-01-20T08:16:36.446Z,101354.91
2023-01-20T08:19:04.184Z,101351.27
2023-01-20T08:21:33.473Z,101358.11
2023-01-20T08:24:03.557Z,101364.12
2023-01-20T08:26:31.663Z,101371.38
2023-01-20T08:29:08.120Z,101366.55
2023-01-20T08:31:36.965Z,101376.62
2023-01-20T08:34:05.511Z,101376.55
2023-01-20T08:36:37.113Z,101375.38
2023-01-20T08:39:10.382Z,101381.42
2023-01-20T08:41:40.742Z,101384.66
2023-01-20T08:44:09.843Z,101393.49
2023-01-20T08:46:41.509Z,101401.14
2023-01-20T08:49:16.620Z,101403.95
2023-01-20T08:51:45.953Z,101410.40
2023-01-20T08:54:13.867Z,101409.19
2023-01-20T08:56:42.022Z,101412.81
2023-01-20T08:59:09.836Z,101418.83
2023-01-20T09:01:38.928Z,101420.08
2023-01-20T09:04:07.687Z,101424.49
2023-01-20T09:06:45.285Z,101421.68
2023-01-20T09:09:15.090Z,101418.87
2023-01-20T09:11:45.818Z,101430.93
2023-01-20T09:14:13.568Z,101428.12
2023-01-20T09:16:41.412Z,101434.53
2023-01-20T09:19:09.251Z,101445.81
2023-01-20T09:21:37.052Z,101446.20
2023-01-20T09:24:05.085Z,101443.39
2023-01-20T09:26:39.509Z,101447.84
2023-01-20T09:29:10.891Z,101442.18
2023-01-20T09:31:47.490Z,101447.41
2023-01-20T09:34:20.261Z,101453.43
2023-01-20T09:36:55.114Z,101447.41
2023-01-20T09:39:41.873Z,101455.42
2023-01-20T09:42:57.407Z,101453.43
2023-01-20T09:45:27.861Z,101465.49
2023-01-20T09:48:15.308Z,101465.89
2023-01-20T09:51:14.354Z,101470.30
2023-01-20T09:53:56.729Z,101467.88
2023-01-20T09:56:27.242Z,101475.11
2023-01-20T09:59:09.682Z,101473.90
2023-01-20T10:01:45.401Z,101475.50
2023-01-20T10:04:24.978Z,101480.30
2023-01-20T10:06:52.514Z,101482.30
2023-01-20T10:09:42.118Z,101484.66
2023-01-20T10:12:34.720Z,101471.38
2023-01-20T10:15:16.914Z,101472.91
2023-01-20T10:18:06.094Z,101472.46
2023-01-20T10:20:46.694Z,101473.24
2023-01-20T10:23:52.077Z,101479.20
2023-01-20T10:26:26.769Z,101476.32
2023-01-20T10:29:00.397Z,101477.53
2023-01-20T10:31:32.136Z,101481.09
2023-01-20T10:34:07.988Z,101483.41
2023-01-20T10:36:36.485Z,101481.78
2023-01-20T10:39:11.779Z,101488.58
2023-01-20T10:41:45.909Z,101484.52
2023-01-20T10:44:15.950Z,101482.89
2023-01-20T10:47:15.981Z,101482.89
2023-01-20T10:50:06.556Z,101484.16
2023-01-20T10:52:45.080Z,101482.92
2023-01-20T10:55:39.596Z,101484.49
2023-01-20T10:58:10.174Z,101486.49
2023-01-20T11:00:38.380Z,101491.79
2023-01-20T11:03:12.142Z,101492.38
2023-01-20T11:05:39.947Z,101494.76
2023-01-20T11:08:17.878Z,101500.84
2023-01-20T11:10:47.284Z,101490.38
2023-01-20T11:13:15.131Z,101494.80
2023-01-20T11:15:47.613Z,101496.79
2023-01-20T11:18:15.311Z,101490.31
2023-01-20T11:21:08.302Z,101499.54
2023-01-20T11:23:36.004Z,101497.54
2023-01-20T11:26:20.590Z,101496.79
2023-01-20T11:29:04.689Z,101501.20
2023-01-20T11:31:42.658Z,101501.56
2023-01-20T11:34:24.486Z,101495.55
2023-01-20T11:37:13.233Z,101506.44
2023-01-20T11:39:57.180Z,101500.38
2023-01-20T11:42:30.812Z,101508.79
2023-01-20T11:45:20.200Z,101500.71
2023-01-20T11:48:16.426Z,101506.34
2023-01-20T11:50:55.446Z,101501.04
2023-01-20T11:53:26.037Z,101499.30
2023-01-20T11:56:15.943Z,101505.32
2023-01-20T11:59:03.039Z,101506.08
2023-01-20T12:01:50.288Z,101506.50
2023-01-20T12:04:44.521Z,101507.25
2023-01-20T12:07:15.951Z,101510.36
2023-01-20T12:09:48.219Z,101509.09
2023-01-20T12:12:15.858Z,101505.45
2023-01-20T12:14:50.283Z,101508.34
2023-01-20T12:17:24.494Z,101511.60
2023-01-20T12:20:00.666Z,101507.68
2023-01-20T12:22:45.078Z,101510.13
2023-01-20T12:25:44.458Z,101502.02
2023-01-20T12:28:20.795Z,101510.91
2023-01-20T12:30:51.238Z,101512.95
2023-01-20T12:33:36.465Z,101511.73
2023-01-20T12:36:21.286Z,101511.02
2023-01-20T12:38:58.435Z,101507.84
2023-01-20T12:42:05.798Z,101510.33
2023-01-20T12:44:51.346Z,101513.17
2023-01-20T12:47:43.880Z,101512.39
2023-01-20T12:50:56.181Z,101515.63
2023-01-20T12:53:58.683Z,101515.30
2023-01-20T12:56:51.171Z,101530.60
2023-01-20T12:59:47.775Z,101521.74
2023-01-20T13:02:19.662Z,101525.40
2023-01-20T13:04:59.552Z,101520.17
2023-01-20T13:07:57.113Z,101520.27
2023-01-20T13:10:33.515Z,101529.16
2023-01-20T13:13:23.973Z,101512.65
2023-01-20T13:16:23.276Z,101519.91
2023-01-20T13:19:04.629Z,101513.50
2023-01-20T13:21:34.650Z,101522.75
2023-01-20T13:24:06.008Z,101519.09
2023-01-20T13:26:35.575Z,101525.53
2023-01-20T13:29:03.528Z,101529.59
2023-01-20T13:31:32.946Z,101530.80
2023-01-20T13:34:36.672Z,101532.40
2023-01-20T13:37:13.289Z,101533.19
2023-01-20T13:39:49.824Z,101529.59
2023-01-20T13:42:39.415Z,101532.40
2023-01-20T13:45:13.602Z,101541.20
2023-01-20T13:48:07.036Z,101541.59
2023-01-20T13:50:42.377Z,101548.78
2023-01-20T13:53:26.841Z,101551.59
2023-01-20T13:56:03.757Z,101549.14
2023-01-20T13:58:33.912Z,101540.28
2023-01-20T14:01:07.214Z,101548.72
2023-01-20T14:03:39.985Z,101553.55
2023-01-20T14:06:11.648Z,101544.30
2023-01-20T14:08:44.772Z,101550.77
2023-01-20T14:11:12.688Z,101556.01
2023-01-20T14:13:40.665Z,101560.06
2023-01-20T14:16:29.064Z,101559.67
2023-01-20T14:19:00.524Z,101564.48
2023-01-20T14:21:31.100Z,101561.24
2023-01-20T14:23:59.601Z,101565.23
2023-01-20T14:26:30.546Z,101565.63
2023-01-20T14:29:00.812Z,101565.63
2023-01-20T14:31:43.111Z,101568.47
2023-01-20T14:34:28.734Z,101574.12
2023-01-20T14:36:58.882Z,101572.91
2023-01-20T14:39:29.138Z,101577.36
2023-01-20T14:42:02.070Z,101582.63
2023-01-20T14:44:34.401Z,101582.63
2023-01-20T14:47:04.766Z,101577.82
2023-01-20T14:49:40.490Z,101588.74
2023-01-20T14:52:10.652Z,101586.68
2023-01-20T14:54:46.809Z,101581.45
2023-01-20T14:57:29.587Z,101594.37
2023-01-20T15:00:22.898Z,101594.79
2023-01-20T15:03:21.789Z,101598.81
2023-01-20T15:05:55.292Z,101605.68
2023-01-20T15:08:56.795Z,101604.86
2023-01-20T15:11:33.734Z,101610.13
2023-01-20T15:14:01.945Z,101615.39
2023-01-20T15:16:39.892Z,101613.82
2023-01-20T15:19:16.642Z,101617.45
2023-01-20T15:21:48.946Z,101619.09
2023-01-20T15:24:20.212Z,101618.30
2023-01-20T15:26:49.957Z,101619.91
2023-01-20T15:29:42.895Z,101625.59
2023-01-20T15:32:12.875Z,101628.44
2023-01-20T15:34:40.609Z,101629.65
2023-01-20T15:37:19.569Z,101638.12
2023-01-20T15:39:48.613Z,101640.15
2023-01-20T15:42:17.102Z,101644.17
2023-01-20T15:44:44.818Z,101644.56
2023-01-20T15:47:27.099Z,101636.95
2023-01-20T15:49:54.840Z,101651.82
2023-01-20T15:52:22.531Z,101646.20
2023-01-20T15:54:50.261Z,101655.05
2023-01-20T15:57:19.119Z,101661.89
2023-01-20T15:59:47.218Z,101669.97
2023-01-20T16:02:23.181Z,101672.39
2023-01-20T16:04:51.315Z,101676.80
2023-01-20T16:07:20.919Z,101680.04
2023-01-20T16:09:48.622Z,101678.02
2023-01-20T16:12:18.821Z,101674.80
2023-01-20T16:14:46.669Z,101682.85
2023-01-20T16:17:20.377Z,101679.62
2023-01-20T16:19:48.711Z,101689.30
2023-01-20T16:22:16.950Z,101690.51
2023-01-20T16:24:45.223Z,101690.11
2023-01-20T16:27:22.100Z,101693.35
2023-01-20T16:29:50.880Z,101694.95
2023-01-20T16:32:22.296Z,101697.38
2023-01-20T16:34:50.655Z,101698.58
2023-01-20T16:37:18.375Z,101700.19
2023-01-20T16:39:46.049Z,101714.28
2023-01-20T16:42:15.416Z,101705.84
2023-01-20T16:44:43.057Z,101706.62
2023-01-20T16:47:10.899Z,101708.26
2023-01-20T16:49:39.669Z,101702.99
2023-01-20T16:52:07.883Z,101709.05
2023-01-20T16:54:35.507Z,101708.26
2023-01-20T16:57:03.303Z,101712.25
2023-01-20T16:59:31.104Z,101713.07
2023-01-20T17:01:58.877Z,101720.75
2023-01-20T17:04:26.586Z,101727.55
2023-01-20T17:06:54.551Z,101720.72
2023-01-20T17:09:22.265Z,101729.62
2023-01-20T17:11:50.021Z,101729.19
2023-01-20T17:14:17.727Z,101727.98
2023-01-20T17:16:45.466Z,101725.95
2023-01-20T17:19:16.121Z,101728.37
2023-01-20T17:21:45.273Z,101736.45
2023-01-20T17:24:13.675Z,101725.56
2023-01-20T17:26:41.463Z,101736.02
2023-01-20T17:29:09.787Z,101739.23
2023-01-20T17:31:37.948Z,101738.45
2023-01-20T17:34:07.144Z,101741.29
2023-01-20T17:36:35.675Z,101741.68
2023-01-20T17:39:04.962Z,101736.41
2023-01-20T17:41:33.014Z,101741.26
2023-01-20T17:44:01.104Z,101743.67
2023-01-20T17:46:31.337Z,101739.26
2023-01-20T17:49:01.319Z,101752.14
2023-01-20T17:51:30.260Z,101748.13
2023-01-20T17:54:03.759Z,101745.67
2023-01-20T17:56:32.189Z,101752.96
2023-01-20T17:58:59.875Z,101759.83
2023-01-20T18:01:33.111Z,101761.43
2023-01-20T18:04:02.585Z,101763.85
2023-01-20T18:06:30.503Z,101761.43
2023-01-20T18:09:01.523Z,101760.22
2023-01-20T18:11:32.842Z,101759.41
2023-01-20T18:14:01.645Z,101773.10
2023-01-20T18:16:32.233Z,101770.69
2023-01-20T18:19:00.229Z,101767.45
2023-01-20T18:21:35.744Z,101768.66
2023-01-20T18:24:05.108Z,101767.09
2023-01-20T18:26:35.584Z,101763.43
2023-01-20T18:29:06.184Z,101770.29
2023-01-20T18:31:35.335Z,101768.66
2023-01-20T18:34:06.710Z,101767.05
2023-01-20T18:36:37.369Z,101769.48
2023-01-20T18:39:25.537Z,101770.29
2023-01-20T18:41:53.329Z,101778.34
2023-01-20T18:44:22.439Z,101777.52
2023-01-20T18:46:50.300Z,101778.73
2023-01-20T18:49:19.027Z,101777.52
2023-01-20T18:51:47.200Z,101774.31
2023-01-20T18:54:18.660Z,101780.37
2023-01-20T18:56:46.486Z,101783.18
2023-01-20T18:59:16.142Z,101771.90
2023-01-20T19:01:44.312Z,101775.91
2023-01-20T19:04:13.618Z,101774.31
2023-01-20T19:06:43.931Z,101766.66
2023-01-20T19:09:12.706Z,101772.29
2023-01-20T19:11:42.392Z,101773.10
2023-01-20T19:14:14.750Z,101781.97
2023-01-20T19:16:50.302Z,101771.08
2023-01-20T19:19:21.243Z,101771.11
2023-01-20T19:21:52.306Z,101776.34
2023-01-20T19:24:21.874Z,101769.09
2023-01-20T19:26:49.626Z,101771.50
2023-01-20T19:29:18.669Z,101773.10
2023-01-20T19:31:46.564Z,101769.87
2023-01-20T19:34:14.454Z,101767.88
2023-01-20T19:36:42.166Z,101767.09
2023-01-20T19:39:09.815Z,101767.88
2023-01-20T19:41:37.590Z,101768.69
2023-01-20T19:44:07.791Z,101769.90
2023-01-20T19:46:38.136Z,101776.31
2023-01-20T19:49:06.172Z,101772.71
2023-01-20T19:51:33.990Z,101777.52
2023-01-20T19:54:03.277Z,101770.26
2023-01-20T19:56:33.542Z,101774.31
2023-01-20T19:59:02.586Z,101777.13
2023-01-20T20:01:35.931Z,101781.15
2023-01-20T20:04:09.297Z,101771.90
2023-01-20T20:06:39.870Z,101774.71
2023-01-20T20:09:27.307Z,101774.28
2023-01-20T20:11:55.677Z,101779.13
2023-01-20T20:14:24.085Z,101777.91
2023-01-20T20:16:52.082Z,101787.16
2023-01-20T20:19:21.298Z,101795.60
2023-01-20T20:21:49.242Z,101785.56
2023-01-20T20:24:18.686Z,101787.98
2023-01-20T20:26:47.537Z,101796.81
2023-01-20T20:29:17.195Z,101792.76
2023-01-20T20:31:45.229Z,101803.65
2023-01-20T20:34:16.480Z,101801.23
2023-01-20T20:36:44.413Z,101803.65
2023-01-20T20:39:16.089Z,101804.86
2023-01-20T20:41:44.420Z,101808.06
2023-01-20T20:44:12.556Z,101804.04
2023-01-20T20:46:40.693Z,101797.99
2023-01-20T20:49:08.406Z,101794.36
2023-01-20T20:51:36.113Z,101800.80
2023-01-20T20:54:04.232Z,101807.21
2023-01-20T20:56:32.928Z,101805.97
2023-01-20T20:59:03.381Z,101807.15
2023-01-20T21:01:34.175Z,101800.70
2023-01-20T21:04:05.546Z,101811.53
2023-01-20T21:06:33.434Z,101803.88
2023-01-20T21:09:01.760Z,101815.55
2023-01-20T21:11:30.603Z,101803.88
2023-01-20T21:13:58.912Z,101810.35
2023-01-20T21:16:27.434Z,101811.13
2023-01-20T21:19:00.403Z,101811.53
2023-01-20T21:21:30.107Z,101817.15
2023-01-20T21:24:00.129Z,101823.95
2023-01-20T21:26:30.676Z,101822.74
2023-01-20T21:29:01.411Z,101823.13
2023-01-20T21:31:29.470Z,101826.80
2023-01-20T21:33:59.555Z,101826.44
2023-01-20T21:36:29.012Z,101828.86
2023-01-20T21:38:56.898Z,101832.91
2023-01-20T21:41:24.808Z,101833.73
2023-01-20T21:44:10.937Z,101834.52
2023-01-20T21:46:41.742Z,101833.70
2023-01-20T21:49:28.788Z,101840.50
2023-01-20T21:52:29.451Z,101838.90
2023-01-20T21:54:57.273Z,101844.91
2023-01-20T21:57:25.759Z,101839.26
2023-01-20T21:59:53.617Z,101846.48
2023-01-20T22:02:21.388Z,101845.21
2023-01-20T22:04:49.416Z,101850.51
2023-01-20T22:07:17.683Z,101850.51
2023-01-20T22:09:45.580Z,101852.47
2023-01-20T22:12:13.553Z,101847.27
2023-01-20T22:14:42.140Z,101848.05
2023-01-20T22:17:12.330Z,101849.30
2023-01-20T22:19:40.387Z,101854.13
2023-01-20T22:22:08.809Z,101858.55
2023-01-20T22:24:37.099Z,101858.16
2023-01-20T22:27:04.869Z,101861.00
2023-01-20T22:29:32.576Z,101858.16
2023-01-20T22:32:03.373Z,101856.52
2023-01-20T22:34:31.444Z,101862.51
2023-01-20T22:37:01.574Z,101856.88
2023-01-20T22:39:29.565Z,101862.97
2023-01-20T22:41:57.332Z,101862.57
2023-01-20T22:44:25.120Z,101858.16
2023-01-20T22:46:52.922Z,101872.25
2023-01-20T22:49:20.714Z,101857.80
2023-01-20T22:51:48.488Z,101858.98
2023-01-20T22:54:16.214Z,101850.96
2023-01-20T22:56:43.926Z,101856.20
2023-01-20T22:59:13.703Z,101856.23
2023-01-20T23:01:41.380Z,101851.00
2023-01-20T23:04:09.094Z,101854.66
2023-01-20T23:06:37.573Z,101857.47
2023-01-20T23:09:09.559Z,101852.17
2023-01-20T23:11:39.211Z,101853.71
2023-01-20T23:14:07.936Z,101856.03
2023-01-20T23:16:35.609Z,101855.94
2023-01-20T23:19:03.312Z,101859.47
2023-01-20T23:21:31.112Z,101852.57
2023-01-20T23:23:58.797Z,101854.53
2023-01-20T23:26:29.516Z,101854.07
2023-01-20T23:28:57.803Z,101858.09
2023-01-20T23:31:26.521Z,101856.52
2023-01-20T23:33:55.305Z,101863.39
2023-01-20T23:36:25.872Z,101853.35
2023-01-20T23:38:57.880Z,101861.46
2023-01-20T23:41:26.296Z,101860.22
2023-01-20T23:43:53.940Z,101857.87
2023-01-20T23:46:21.703Z,101858.65
2023-01-20T23:48:49.345Z,101869.15
2023-01-20T23:51:17.433Z,101868.75
2023-01-20T23:53:45.352Z,101869.96
2023-01-20T23:56:16.564Z,101867.15
2023-01-20T23:58:44.550Z,101874.02
